Tiempo atmosférico en la estación meteorológica de San Vicente de la Barquera, Cantabria (39 m.)



Fecha
DESCASC
Temp. máxima en grados centígrados (hora)
DESCASC
Temp. mínima en grados centígrados (hora)
DESCASC
Temp. media en grados centígrados
DESCASC
Racha de viento máxima en m/sg (hora)
DESCASC
Velocidad máxima media en intervalos de 10 minutos(hora)
DESCASC
Precipitaciones diarias en mm
DESCASC
Precipitaciones de 00:00 a 06:00 en mm
DESCASC
Precipitaciones de 06:00 a 12:00 en mm
DESCASC
Precipitaciones de 12:00 a 18:00 en mm
DESCASC
Precipitaciones de 18:00 a 24:00 en mm
DESCASC
05-04-2020 24.9 (15:00) 14.8 (23:50) 19.8 9.44 (11:50) 5.28 (00:40) 0 0 0 0 0
04-04-2020 18.7 (17:00) 4.8 (07:40) 11.8 7.22 (23:59) 4.72 (23:40) 0 0 0 0 0
03-04-2020 12.9 (13:40) 8.3 (23:59) 10.6 12.78 (16:30) 9.17 (18:30) 0 0 0 0 0
02-04-2020 13.7 (15:20) 10.6 (00:00) 12.2 6.39 (23:20) 4.72 (16:40) 0.5 0.1 0.4 0 0
01-04-2020 14.3 (17:00) 8.5 (00:00) 11.4 9.72 (02:40) 5.83 (05:50) 0.1 0 0.1 0 0
31-03-2020 9.9 (15:10) 1.9 (00:00) 5.9 13.06 (15:30) 9.44 (15:30) 0.5 0.5 0 0 0
30-03-2020 8.9 (13:20) 3.2 (00:00) 6 16.39 (08:00) 12.5 (08:10) 15 1.9 1.4 0.9 10.8
29-03-2020 14.6 (15:50) 5.7 (00:00) 10.2 11.11 (23:59) 6.11 (21:00) 2 0 0 0.4 1.6
28-03-2020 14.8 (17:00) 3.9 (00:00) 9.4 6.67 (04:40) 3.61 (02:30) 0 0 0 0 0
27-03-2020 12.6 (14:10) 3.3 (00:00) 8 11.67 (18:30) 8.89 (18:20) 0 0 0 0 0
26-03-2020 13.1 (14:30) 5.9 (00:00) 9.5 11.11 (16:40) 7.5 (15:50) 0 0 0 0 0
25-03-2020 15.3 (14:40) 6.6 (00:00) 11 6.11 (21:30) 4.17 (21:20) 0 0 0 0 0
24-03-2020 15.6 (13:00) 7.2 (00:00) 11.4 11.11 (16:20) 7.5 (15:20) 0 0 0 0 0
23-03-2020 14.5 (12:30) 10.9 (00:00) 12.7 9.17 (19:10) 6.39 (15:20) 0 0 0 0 0
22-03-2020 15 (15:40) 11.1 (05:00) 13.1 5.28 (12:10) 4.17 (15:10) 0 0 0 0 0
21-03-2020 14.3 (15:30) 9.3 (00:00) 11.8 5.83 (17:10) 4.17 (16:50) 0 0 0 0 0
20-03-2020 13.2 (13:50) 9.9 (00:00) 11.5 3.33 (14:20) 1.67 (15:10) 0.2 0.2 0 0 0
19-03-2020 11.9 (14:40) 10.1 (00:00) 11 3.06 (15:20) 1.67 (15:00) 0.4 0.2 0 0 0.2
18-03-2020 13.4 (12:40) 7.1 (00:00) 10.2 4.17 (12:10) 2.78 (05:20) 0 0 0 0 0
17-03-2020 13.9 (12:30) 8.9 (00:00) 11.4 9.44 (17:00) 6.67 (16:40) 0.1 0.1 0 0 0
16-03-2020 11.7 (13:20) 5.1 (00:00) 8.4 14.72 (11:10) 9.44 (11:10) 9.5 3.7 5.2 0.3 0.3
15-03-2020 15.6 (15:40) 5.6 (00:00) 10.6 14.44 (16:50) 10.56 (17:20) 8.2 0 0 0.7 7.5
14-03-2020 14 (15:10) 6.3 (00:00) 10.2 6.11 (19:10) 3.89 (17:20) 0 0 0 0 0
13-03-2020 12.6 (16:10) 6.7 (23:59) 9.7 8.61 (14:30) 5.28 (12:40) 4.4 4.3 0.1 0 0
12-03-2020 13.7 (12:40) 10 (00:00) 11.8 10.83 (15:20) 7.22 (15:20) 6.3 0 0 1.9 4.4
11-03-2020 15.4 (15:30) 7.3 (00:00) 11.3 5.83 (13:40) 3.89 (00:10) 0 0 0 0 0
10-03-2020 14.4 (17:10) 6.5 (00:00) 10.4 4.72 (23:59) 3.61 (23:59) 0 0 0 0 0

Gráficas

Temp. máximas Temp. mínimas Temp. medias Precipitaciones Rachas de viento máximas Velocidades máximas media en intervalos de 10 minutos

Datos horarios

Fecha y hora oficial Temperatura (ºC) Velocidad del viento (km/h) Dirección del viento Racha (km/h) Dirección de racha Precipitación (mm) Presión (hPa) Tendencia (hPa) Humedad (%)
2020-04-08 23:00:00 12.4 4 Este 12 Nordeste 0 1016.1 0.3 94
2020-04-08 22:00:00 12.2 7 Este 12 Nordeste 0 1016.1 0.2 94
2020-04-08 21:00:00 12.3 4 Este 15 Este 0 1015.8 -0.1 94
2020-04-08 20:00:00 12.5 7 Este 14 Este 0 1015.8 -0.6 94
2020-04-08 19:00:00 12.7 11 Este 15 Nordeste 0 1015.9 -0.6 93
2020-04-08 18:00:00 12.9 9 Este 14 Este 0 1015.9 -1 92
2020-04-08 17:00:00 13.4 9 Nordeste 17 Este 0 1016.4 -1.1 92
2020-04-08 16:00:00 13.9 5 Nordeste 10 Este 0 1016.5 -1.4 91
2020-04-08 15:00:00 13.9 5 Nordeste 12 Este 0 1016.9 -1.2 91
2020-04-08 14:00:00 13.7 3 Nordeste 12 Nordeste 0 1017.5 -0.7 90
2020-04-08 13:00:00 14.1 8 Nordeste 10 Nordeste 0 1017.9 -0.3 91
2020-04-08 12:00:00 12.8 0 Calma 7 Nordeste 0 1018.1 0.1 94
2020-04-08 11:00:00 12.3 3 Nordeste 10 Este 0 1018.2 0.1 94
2020-04-08 10:00:00 12 0 Calma 4 Sur 0 1018.2 0.5 94
2020-04-08 09:00:00 11.7 0 Calma -- -- 0.1 1018 0.3 94
2020-04-08 08:00:00 11.7 0 Calma 5 Este 0 1018.1 0 94
2020-04-08 07:00:00 11.7 0 Calma 3 Este 0.1 1017.7 -0.5 94
2020-04-08 06:00:00 11.9 0 Calma 4 Este 0 1017.7 -0.9 94
2020-04-08 05:00:00 11.9 0 Calma 5 Nordeste 0 1018.1 -0.5 94
2020-04-08 04:00:00 12.1 0 Calma 3 Noroeste 0 1018.2 -0.7 94
2020-04-08 03:00:00 12.1 0 Calma 6 Nordeste 0 1018.6 -0.2 94
2020-04-08 02:00:00 12.3 0 Calma 6 Sur 0 1018.6 -0.2 94
2020-04-08 01:00:00 12.3 0 Calma -- -- 0 1018.9 0.6 94
2020-04-08 00:00:00 12.2 0 Calma 6 Noroeste 0 1018.8 0.7 94
2020-04-07 23:00:00 12.4 5 Noroeste 10 Noroeste 0.3 1018.8 1.3 94
2020-04-07 22:00:00 12.6 4 Nordeste 7 Nordeste 0.1 1018.3 1 93
2020-04-07 21:00:00 12.3 2 Norte 7 Norte 0 1018.1 1.4 93
2020-04-07 20:00:00 12.6 3 Norte 9 Nordeste 0 1017.5 0.7 93
2020-04-07 19:00:00 13 5 Norte 7 Norte 0 1017.3 0.6 90
2020-04-07 18:00:00 13.5 4 Nordeste 9 Norte 0 1016.7 -0.2 88
2020-04-07 17:00:00 13.3 6 Norte 12 Norte 0 1016.8 -0.2 87
2020-04-07 16:00:00 13.3 8 Norte 14 Nordeste 0 1016.7 -0.8 86
2020-04-07 15:00:00 14.2 7 Nordeste 14 Nordeste 0 1016.9 -0.8 83
2020-04-07 14:00:00 14.4 6 Nordeste 13 Nordeste 0 1017 -0.5 83
2020-04-07 13:00:00 13.7 6 Nordeste 10 Nordeste 0 1017.5 -0.1 84
2020-04-07 12:00:00 13.2 5 Nordeste 8 Nordeste 0 1017.7 0.1 87
2020-04-07 11:00:00 12.4 0 Calma 8 Sudeste 0 1017.5 0.3 88
2020-04-07 10:00:00 11.9 0 Calma 7 Sur 0 1017.6 0.4 93
2020-04-07 09:00:00 11.3 4 Sur 6 Sur 0 1017.6 0.5 94
2020-04-07 08:00:00 11.2 0 Calma 6 Sudoeste 0 1017.2 -0.1 93
2020-04-07 07:00:00 11 0 Calma 10 Sur 0 1017.2 -0.5 94
2020-04-07 06:00:00 10.9 5 Sur 10 Sur 0 1017.1 -0.8 94
2020-04-07 05:00:00 10.9 5 Sur 8 Sur 0 1017.3 -0.7 93
2020-04-07 04:00:00 10.9 5 Sur 8 Sur 0 1017.7 -0.2 93
2020-04-07 03:00:00 10.5 4 Sudeste 13 Este 0 1017.9 -0.6 93
2020-04-07 02:00:00 10.9 7 Este 12 Este 0 1018 -0.9 94
2020-04-07 01:00:00 11.2 8 Este 14 Este 0 1017.9 -1 93
2020-04-07 00:00:00 11.4 7 Este 20 Este 0.1 1018.5 0.1 94
2020-04-06 23:00:00 11.6 9 Este 20 Este 0.1 1018.9 0.6 93
2020-04-06 22:00:00 11.7 6 Este 18 Este 0.1 1018.9 0.9 93
2020-04-06 21:00:00 11.7 6 Este 18 Nordeste 0.1 1018.4 0.8 93
2020-04-06 20:00:00 11.7 12 Este 19 Este 0.2 1018.3 0.5 90
2020-04-06 19:00:00 12.1 11 Nordeste 17 Este 0 1018 0.1 90
2020-04-06 18:00:00 12.6 9 Nordeste 14 Nordeste 0 1017.6 -0.4 88
2020-04-06 17:00:00 13 6 Nordeste 12 Este 0 1017.8 0.1 90
2020-04-06 16:00:00 12.5 5 Nordeste 13 Norte 0 1017.9 0.4 92
2020-04-06 15:00:00 12.5 5 Nordeste 12 Nordeste 0.2 1018 1 93
2020-04-06 14:00:00 12.1 5 Nordeste 13 Norte 2.2 1017.7 1.8 95
2020-04-06 13:00:00 11.3 9 Noroeste 19 Noroeste 4.4 1017.5 2.7 95
2020-04-06 12:00:00 11.5 13 Noroeste 26 Oeste 3.7 1017 3.2 95
2020-04-06 11:00:00 13 5 Oeste 19 Oeste 0.5 1015.9 3 87
2020-04-06 10:00:00 13.3 4 Sur 13 Oeste 0 1014.8 2.6 86
2020-04-06 09:00:00 13 9 Oeste 21 Oeste 0 1013.8 2.1 90
2020-04-06 08:00:00 13 15 Oeste 21 Oeste 0 1012.9 1.7 90
2020-04-06 07:00:00 13.2 0 Calma 14 Oeste 0 1012.2 1.4 90
2020-04-06 06:00:00 13.3 4 Oeste 13 Oeste 0 1011.7 1 90
2020-04-06 05:00:00 13.3 6 Oeste 16 Oeste 0 1011.2 0.8 90
2020-04-06 04:00:00 13.3 10 Oeste 17 Oeste 0 1010.8 1 90
2020-04-06 03:00:00 12.6 4 Sudoeste 11 Noroeste 0 1010.7 1.9 87
2020-04-06 02:00:00 13.6 5 Noroeste 15 Sudoeste 0 1010.4 2.7 83
2020-04-06 01:00:00 14.3 15 Oeste 24 Oeste 0 1009.8 2.8 79
2020-04-06 00:00:00 15 6 Noroeste 13 Oeste 0 1008.8 2.1 66
2020-04-05 23:00:00 15.8 3 Noroeste 12 Noroeste 0 1007.7 1.7 60
2020-04-05 22:00:00 16.4 2 Noroeste 9 Sudoeste 0 1007 2.6 56
2020-04-05 21:00:00 17.2 2 Noroeste 14 Noroeste 0 1006.7 2.5 52
2020-04-05 20:00:00 17.4 6 Oeste 21 Oeste 0 1006 1.5 51
2020-04-05 19:00:00 19.4 9 Oeste 20 Oeste 0 1004.4 -0.4 50
2020-04-05 18:00:00 19.8 9 Sur 19 Sur 0 1004.2 -0.4 49
2020-04-05 17:00:00 18.7 0 Calma 15 Sudoeste 0 1004.5 0.1 51
2020-04-05 16:00:00 19.4 10 Oeste 27 Oeste 0 1004.8 0.4 44
2020-04-05 15:00:00 21.3 9 Oeste 30 Sudoeste 0 1004.6 -0.3 40
2020-04-05 14:00:00 23.2 9 Sur 31 Sur 0 1004.4 -0.4 39
2020-04-05 13:00:00 21.8 10 Sur 33 Sudoeste 0 1004.4 -0.1 40
2020-04-05 12:00:00 22.5 6 Sur 34 Sudeste 0 1004.9 0.6 39
2020-04-05 11:00:00 22.3 5 Sur 23 Sur 0 1004.8 0.6 39
2020-04-05 10:00:00 20.8 4 Sudoeste 28 Sur 0 1004.5 0.7 41
2020-04-05 09:00:00 17.5 4 Sudoeste 17 Sur 0 1004.3 1.1 44
2020-04-05 08:00:00 17.1 6 Sur 22 Sudoeste 0 1004.2 0.5 45
2020-04-05 07:00:00 18.9 10 Sudoeste 32 Sudoeste 0 1003.8 -0.3 40
2020-04-05 06:00:00 16.9 5 Sur 15 Sur 0 1003.2 -1.5 49
2020-04-05 05:00:00 17.5 8 Sur 15 Sur 0 1003.7 -1.5 43
2020-04-05 04:00:00 19.3 8 Sur 24 Sudeste 0 1004.1 -1.1 38
2020-04-05 03:00:00 18.9 6 Sudeste 22 Sur 0 1004.7 -0.5 38
2020-04-05 02:00:00 18.5 9 Sur 23 Sudeste 0 1005.2 -0.1 39
2020-04-05 01:00:00 19.6 13 Sudeste 31 Sur 0 1005.2 -0.1 36
2020-04-05 00:00:00 17.3 13 Sur 26 Sur 0 1005.2 0.2 47
2020-04-04 23:00:00 13.4 4 Sudeste 12 Sur 0 1005.3 0.5 71
2020-04-04 22:00:00 13.3 3 Este 6 Este 0 1005.3 0.7 73
2020-04-04 21:00:00 14 0 Calma 11 Oeste 0 1005 0.3 67
2020-04-04 20:00:00 15.1 4 Oeste 13 Oeste 0 1004.8 -0.5 62
2020-04-04 19:00:00 15.5 6 Noroeste 12 Noroeste 0 1004.6 -1.7 59
2020-04-04 18:00:00 15.8 9 Noroeste 16 Noroeste 0 1004.7 -2.5 51
2020-04-04 17:00:00 17.9 3 Noroeste 10 Noroeste 0 1005.3 -2.1 43
2020-04-04 16:00:00 17 5 Noroeste 15 Noroeste 0 1006.3 -1.5 47
2020-04-04 15:00:00 15 6 Noroeste 15 Norte 0 1007.2 -0.9 72
2020-04-04 14:00:00 13.1 5 Norte 17 Noroeste 0 1007.4 -1 83
2020-04-04 13:00:00 13.6 13 Noroeste 19 Noroeste 0 1007.8 -1 78
2020-04-04 12:00:00 12.9 3 Norte 7 Nordeste 0 1008.1 -0.7 77
2020-04-04 11:00:00 14.2 5 Sur 10 Sudoeste 0 1008.4 -0.2 68
2020-04-04 10:00:00 10.1 6 Sudoeste 13 Sudoeste 0 1008.8 -0.2 78
2020-04-04 09:00:00 6.5 12 Sudoeste 16 Sudoeste 0 1008.8 -0.1 90
2020-04-04 08:00:00 5.5 14 Sudoeste 17 Sudoeste 0 1008.6 -0.6 94
2020-04-04 07:00:00 5.6 11 Sudoeste 14 Sur 0 1009 -0.7 94
2020-04-04 06:00:00 5.6 11 Sur 14 Sudoeste 0 1008.9 -1.6 95
2020-04-04 05:00:00 5.6 11 Sudoeste 15 Sudoeste 0 1009.2 -1.5 95
2020-04-04 04:00:00 5.9 11 Sur 13 Sur 0 1009.7 -1.2 95
2020-04-04 03:00:00 6.3 10 Sur 12 Sur 0 1010.5 -0.8 94
2020-04-04 02:00:00 6.6 8 Sur 12 Sur 0 1010.7 -0.7 93
2020-04-04 01:00:00 7.3 9 Sur 11 Sudoeste 0 1010.9 -0.5 92
2020-04-04 00:00:00 8.3 3 Sudeste 11 Sudeste 0 1011.3 0 89
2020-04-03 23:00:00 9.2 5 Sudeste 15 Este 0 1011.4 0 82
2020-04-03 22:00:00 10.2 8 Este 28 Este 0 1011.4 0 80
2020-04-03 21:00:00 11.1 21 Este 40 Este 0 1011.3 -0.6 80
2020-04-03 20:00:00 11.4 30 Este 43 Este 0 1011.4 -1 76
2020-04-03 19:00:00 11.6 32 Este 45 Este 0 1011.4 -1.5 71
2020-04-03 18:00:00 11.6 31 Este 44 Este 0 1011.9 -1.5 68
2020-04-03 17:00:00 11.9 30 Este 46 Este 0 1012.4 -2 63
2020-04-03 16:00:00 12.1 30 Este 40 Este 0 1012.9 -2.2 59
2020-04-03 15:00:00 12 28 Este 37 Este 0 1013.4 -1.9 57
2020-04-03 14:00:00 12.2 24 Nordeste 33 Este 0 1014.4 -0.9 56
2020-04-03 13:00:00 12.4 19 Nordeste 28 Nordeste 0 1015.1 0.1 59
2020-04-03 12:00:00 11.7 16 Este 23 Este 0 1015.3 0.3 58
2020-04-03 11:00:00 11.5 10 Este 19 Este 0 1015.3 0.7 59
2020-04-03 10:00:00 10.9 4 Sudeste 12 Sur 0 1015 0.6 74
2020-04-03 09:00:00 9.1 5 Sudeste 10 Sur 0 1015 0.4 87
2020-04-03 08:00:00 8.9 5 Sur 7 Sur 0 1014.6 -0.4 90
2020-04-03 07:00:00 9.1 5 Sur 7 Sudoeste 0 1014.4 -0.7 87
2020-04-03 06:00:00 9.1 5 Sur 8 Sur 0 1014.6 -1 88
2020-04-03 05:00:00 9.5 5 Sur 7 Sudoeste 0 1015 -0.7 85
2020-04-03 04:00:00 9.7 0 Calma 9 Nordeste 0 1015.1 -0.6 82
2020-04-03 03:00:00 10.4 2 Nordeste 12 Norte 0 1015.6 -0.2 71
2020-04-03 02:00:00 10.4 6 Norte 14 Norte 0 1015.7 0 68
2020-04-03 01:00:00 10.4 9 Norte 16 Norte 0 1015.7 0.2 70
2020-04-03 00:00:00 10.7 12 Norte 23 Norte 0 1015.8 1.1 71
2020-04-02 23:00:00 10.9 15 Norte 21 Norte 0 1015.7 1.2 71
2020-04-02 22:00:00 11.1 14 Norte 18 Norte 0 1015.5 1.6 68
2020-04-02 21:00:00 11.4 8 Norte 17 Norte 0 1014.7 1.1 62
2020-04-02 20:00:00 11.5 8 Norte 17 Norte 0 1014.5 1.3 57
2020-04-02 19:00:00 11.6 11 Norte 18 Nordeste 0 1013.9 0.6 56
2020-04-02 18:00:00 11.9 13 Norte 20 Norte 0 1013.6 0.4 59
2020-04-02 17:00:00 12.3 15 Norte 22 Norte 0 1013.2 0.1 59
2020-04-02 16:00:00 12.5 12 Norte 16 Norte 0 1013.3 0.2 65
2020-04-02 15:00:00 13.4 10 Norte 16 Norte 0 1013.2 0.6 70
2020-04-02 14:00:00 12.9 12 Norte 17 Norte 0 1013.1 1.2 77
2020-04-02 13:00:00 12.8 11 Norte 17 Norte 0 1013.1 2.1 81
2020-04-02 12:00:00 12.6 10 Norte 21 Norte 0.1 1012.6 2.2 89
2020-04-02 11:00:00 11.8 12 Norte 16 Norte 0 1011.9 2.2 91
2020-04-02 10:00:00 11.9 7 Noroeste 19 Noroeste 0 1011 1.7 95
2020-04-02 09:00:00 11.8 14 Oeste 22 Oeste 0.2 1010.4 1.4 95
2020-04-02 08:00:00 11.5 10 Oeste 19 Oeste 0.1 1009.7 0.6 94
2020-04-02 07:00:00 11.7 11 Oeste 19 Oeste 0 1009.3 0.1 93
2020-04-02 06:00:00 11.4 2 Oeste 19 Oeste 0 1009 -0.4 92
2020-04-02 05:00:00 11.4 12 Oeste 17 Oeste 0 1009.1 -0.4 91
2020-04-02 04:00:00 11.4 6 Oeste 15 Oeste 0 1009.2 -0.1 91
2020-04-02 03:00:00 11.5 8 Oeste 17 Oeste 0 1009.4 0 91
2020-04-02 02:00:00 11.5 3 Oeste 13 Oeste 0 1009.5 0.2 91
2020-04-02 01:00:00 11.5 0 Calma 13 Oeste 0.1 1009.3 0.4 91
2020-04-02 00:00:00 11.9 8 Oeste 15 Oeste 0 1009.4 1.1 90
2020-04-01 23:00:00 11.7 7 Oeste 12 Oeste 0 1009.3 1.3 90
2020-04-01 22:00:00 11.6 0 Calma 8 Oeste 0 1008.9 1.3 92
2020-04-01 21:00:00 11.9 4 Oeste 11 Oeste 0 1008.3 1.2 90
2020-04-01 20:00:00 12.3 4 Noroeste 17 Noroeste 0 1008 0.8 91
2020-04-01 19:00:00 12.3 14 Noroeste 22 Noroeste 0 1007.6 0.5 90
2020-04-01 18:00:00 12.9 14 Oeste 22 Oeste 0 1007.1 -0.1 81
2020-04-01 17:00:00 13.9 15 Noroeste 23 Noroeste 0 1007.2 0.1 77
2020-04-01 16:00:00 13.4 16 Noroeste 23 Noroeste 0 1007.1 0 81
2020-04-01 15:00:00 12.7 15 Noroeste 23 Noroeste 0 1007.2 -0.1 81
2020-04-01 14:00:00 12.9 12 Noroeste 17 Oeste 0 1007.1 0.1 76
2020-04-01 13:00:00 12.8 12 Noroeste 22 Noroeste 0 1007.1 0.8 74
2020-04-01 12:00:00 12.3 10 Oeste 20 Oeste 0.1 1007.3 1.6 78
2020-04-01 11:00:00 11.4 12 Noroeste 20 Noroeste 0 1007 1.7 78
2020-04-01 10:00:00 11.6 6 Oeste 12 Sudoeste 0 1006.3 1.2 77
2020-04-01 09:00:00 10.7 7 Sur 19 Este 0 1005.7 0.6 76
2020-04-01 08:00:00 11.2 5 Este 26 Este 0 1005.3 0.1 81
2020-04-01 07:00:00 11.8 7 Este 20 Sudeste 0 1005.1 -0.4 67
2020-04-01 06:00:00 11.3 17 Sudeste 33 Este 0 1005.1 -1 71
2020-04-01 05:00:00 10.1 14 Este 28 Este 0 1005.2 -0.9 84
2020-04-01 04:00:00 9.9 15 Este 34 Este 0 1005.5 -1.3 87
2020-04-01 03:00:00 9.9 13 Este 35 Este 0 1006.1 -1 85
2020-04-01 02:00:00 9.5 12 Este 31 Este 0 1006.1 -1.3 87
2020-04-01 01:00:00 9.1 15 Este 28 Este 0 1006.8 -0.3 87
2020-04-01 00:00:00 8.8 8 Este 22 Este 0 1007.1 0.3 89
2020-03-31 23:00:00 8.4 8 Este 20 Este 0 1007.4 0.8 88
2020-03-31 22:00:00 8.6 8 Este 23 Este 0 1007.1 1 87
2020-03-31 21:00:00 9 9 Este 32 Este 0 1006.8 0.3 87
2020-03-31 20:00:00 9.2 10 Este 35 Este 0 1006.6 -0.2 84
2020-03-31 19:00:00 9.3 14 Este 37 Este 0 1006.1 -0.9 83
2020-03-31 18:00:00 9.3 15 Este 40 Este 0 1006.5 -0.8 82
2020-03-31 17:00:00 8.9 22 Este 45 Nordeste 0 1006.8 -1.1 81
2020-03-31 16:00:00 9.4 31 Este 47 Este 0 1007 -1.4 75
2020-03-31 15:00:00 9.7 28 Este 40 Este 0 1007.3 -1.5 68
2020-03-31 14:00:00 9.4 23 Este 41 Este 0 1007.9 -1.3 69
2020-03-31 13:00:00 8 18 Este 37 Este 0 1008.4 -0.6 71
2020-03-31 12:00:00 7.6 13 Este 46 Este 0 1008.8 -0.6 72
2020-03-31 11:00:00 7.1 16 Este 37 Este 0 1009.2 0 71
2020-03-31 10:00:00 6.3 13 Este 21 Este 0 1009 0 79
2020-03-31 09:00:00 3.8 10 Sudeste 18 Sudeste 0 1009.4 0.4 93
2020-03-31 08:00:00 2.3 10 Sur 15 Sur 0 1009.2 -0.2 96
2020-03-31 07:00:00 2 9 Sur 14 Sur 0 1009 -0.9 96
2020-03-31 06:00:00 2.3 10 Sur 12 Sur 0 1009 -2 95
2020-03-31 05:00:00 2.9 6 Sur 12 Sudoeste 0 1009.4 -2.5 94
2020-03-31 04:00:00 2.8 5 Sur 12 Sur 0 1009.9 -2.8 94
2020-03-31 03:00:00 2.9 3 Sudoeste 13 Sudoeste 0.1 1011 -2.5 94
2020-03-31 02:00:00 3.3 3 Oeste 13 Sudoeste 0.3 1011.9 -2.1 95
2020-03-31 01:00:00 3.1 6 Sur 17 Sudoeste 0.1 1012.7 -1.8 95
2020-03-31 00:00:00 3.4 5 Sur 13 Sudoeste 2.6 1013.5 -0.8 94
2020-03-30 23:00:00 3.3 6 Sudoeste 14 Sur 2.6 1014 -0.6 94
2020-03-30 22:00:00 3.4 4 Sudoeste 15 Sur 0.7 1014.5 -0.3 94
2020-03-30 21:00:00 3.6 6 Sudoeste 28 Norte 1.9 1014.3 -0.8 93
2020-03-30 20:00:00 3.6 2 Sudoeste 21 Sudoeste 1.4 1014.6 -1 91
2020-03-30 19:00:00 3.3 6 Sudoeste 19 Oeste 1.6 1014.8 -1.5 89
2020-03-30 18:00:00 5.8 2 Oeste 36 Norte 0.3 1015.1 -2 84
2020-03-30 17:00:00 6.6 12 Nordeste 39 Nordeste 0.2 1015.6 -1.7 78
2020-03-30 16:00:00 6.4 16 Nordeste 36 Nordeste 0.3 1016.3 -1.3 78
2020-03-30 15:00:00 5.6 23 Nordeste 41 Norte 0.1 1017.1 -0.9 77
2020-03-30 14:00:00 7.6 19 Nordeste 34 Nordeste 0 1017.3 -1.1 62
2020-03-30 13:00:00 8.2 19 Nordeste 36 Nordeste 0 1017.6 -0.8 60
2020-03-30 12:00:00 6.8 23 Nordeste 43 Nordeste 0.1 1018 -0.5 74
2020-03-30 11:00:00 6.3 19 Nordeste 41 Nordeste 0.1 1018.4 0.3 74
2020-03-30 10:00:00 4.5 3 Sudeste 22 Sur 0 1018.4 0.6 92
2020-03-30 09:00:00 4 7 Sur 59 Norte 1.2 1018.5 0.4 92
2020-03-30 08:00:00 5.9 40 Norte 59 Norte 0 1018.1 -0.8 78
2020-03-30 07:00:00 8 22 Nordeste 41 Norte 0 1017.8 -1.4 60
2020-03-30 06:00:00 7.9 19 Nordeste 39 Norte 0 1018.1 -2 62
2020-03-30 05:00:00 6.3 4 Sudoeste 20 Sudoeste 0.2 1018.9 -1.4 81
2020-03-30 04:00:00 6.4 10 Sudoeste 18 Sudoeste 0 1019.2 -1.3 84
2020-03-30 03:00:00 7.7 8 Este 37 Nordeste 0.2 1020.1 -0.5 70
2020-03-30 02:00:00 8 24 Nordeste 47 Nordeste 0.4 1020.3 -0.1 72
2020-03-30 01:00:00 8 20 Nordeste 40 Este 1.1 1020.5 0.5 77
2020-03-30 00:00:00 8.3 16 Nordeste 40 Norte 0.7 1020.6 1 85
2020-03-29 23:00:00 9.7 21 Nordeste 36 Este 0.3 1020.4 1.4 72
2020-03-29 22:00:00 9.6 21 Nordeste 37 Este 0.3 1020 1.4 77
2020-03-29 21:00:00 9.4 22 Nordeste 38 Este 0.1 1019.6 1.2 81
2020-03-29 20:00:00 10.1 18 Nordeste 36 Nordeste 0 1019 1 84
2020-03-29 19:00:00 10.2 20 Nordeste 33 Nordeste 0.2 1018.6 0.8 88
2020-03-29 18:00:00 10.7 17 Nordeste 33 Nordeste 0.4 1018.4 0.6 91
2020-03-29 17:00:00 11.8 20 Nordeste 33 Este 0 1018 -0.2 84
2020-03-29 16:00:00 13.7 13 Norte 19 Norte 0 1017.8 -0.5 65
2020-03-29 15:00:00 13.5 8 Norte 14 Norte 0 1017.8 -0.5 67
2020-03-29 14:00:00 13.8 11 Norte 17 Norte 0 1018.2 0 71
2020-03-29 13:00:00 13.3 10 Norte 13 Norte 0 1018.3 0.5 72
2020-03-29 12:00:00 13 8 Norte 11 Norte 0 1018.3 0.7 68
2020-03-29 11:00:00 12.3 0 Calma 12 Sur 0 1018.2 1.1 75
2020-03-29 10:00:00 8.5 10 Sur 15 Sudoeste 0 1017.8 1 88
2020-03-29 09:00:00 6.4 11 Sudoeste 18 Sudoeste 0 1017.6 1 92
2020-03-29 08:00:00 5.8 13 Sudoeste 17 Sudoeste 0 1017.1 0.6 94
2020-03-29 07:00:00 5.8 12 Sudoeste 15 Sudoeste 0 1016.8 0 94
2020-03-29 06:00:00 5.9 12 Sudoeste 14 Sudoeste 0 1016.6 -0.7 94
2020-03-29 05:00:00 6 12 Sudoeste 15 Sudoeste 0 1016.5 -0.8 94
2020-03-29 03:00:00 6.7 13 Sudoeste 16 Sudoeste 0 1017.3 0.1 94
2020-03-29 01:00:00 7.2 13 Sudoeste 15 Sudoeste 0 1017.3 0 94
2020-03-29 00:00:00 8.1 12 Sudoeste 14 Sudoeste 0 1017.2 0.3 92
2020-03-28 23:00:00 8.8 11 Sudoeste 13 Sudoeste 0 1017.2 1.3 90
2020-03-28 22:00:00 9.9 8 Sudoeste 10 Sudoeste 0 1017.3 1.8 86
2020-03-28 21:00:00 11.2 5 Sudeste 11 Este 0 1016.9 1.8 81
2020-03-28 20:00:00 12.2 6 Este 14 Este 0 1015.9 1.2 76
2020-03-28 19:00:00 13.2 10 Este 16 Este 0 1015.5 0.7 70
2020-03-28 18:00:00 14 7 Este 12 Nordeste 0 1015.1 0.3 71
2020-03-28 17:00:00 14.4 6 Nordeste 12 Nordeste 0 1014.7 -0.5 71
2020-03-28 16:00:00 14.5 6 Nordeste 13 Norte 0 1014.8 -0.4 67
2020-03-28 15:00:00 13.5 8 Nordeste 13 Nordeste 0 1014.8 -0.6 66
2020-03-28 14:00:00 13.2 6 Nordeste 10 Nordeste 0 1015.2 -0.1 63
2020-03-28 13:00:00 12.2 8 Norte 13 Norte 0 1015.2 0.1 65
2020-03-28 12:00:00 11.4 5 Norte 12 Norte 0 1015.4 1 70
2020-03-28 11:00:00 11 4 Norte 12 Nordeste 0 1015.3 1.4 69
2020-03-28 10:00:00 10.7 0 Calma 13 Sur 0 1015.1 1.7 69
2020-03-28 09:00:00 7.4 9 Sur 14 Sur 0 1014.4 1.4 84
2020-03-28 08:00:00 4.8 11 Sur 15 Sudoeste 0 1013.9 1.3 91
2020-03-28 07:00:00 3.9 11 Sur 15 Sur 0 1013.4 1 92
2020-03-28 06:00:00 4.1 10 Sur 14 Sudoeste 0 1013 0.6 92
2020-03-28 05:00:00 4.3 10 Sudoeste 24 Sudoeste 0 1012.6 0.2 92
2020-03-28 04:00:00 4.1 10 Sudoeste 16 Sudoeste 0 1012.4 0 93
2020-03-28 03:00:00 4.4 10 Sur 15 Sudoeste 0 1012.4 -0.1 91
2020-03-28 02:00:00 4.7 12 Sudoeste 15 Sudoeste 0 1012.4 -0.1 90
2020-03-28 01:00:00 5.2 12 Sudoeste 14 Sudoeste 0 1012.4 0.2 89
2020-03-28 00:00:00 6.3 9 Sudoeste 14 Sur 0 1012.5 0.7 87
2020-03-27 23:00:00 7.9 6 Sudeste 12 Este 0 1012.5 1.5 81
2020-03-27 22:00:00 9.1 5 Sudeste 13 Este 0 1012.2 1.9 71
2020-03-27 21:00:00 9.9 9 Sudeste 29 Este 0 1011.8 2 67
2020-03-27 20:00:00 10.6 14 Este 38 Este 0 1011 1.3 64
2020-03-27 19:00:00 11.6 30 Este 42 Este 0 1010.3 0.4 65
2020-03-27 18:00:00 11.7 31 Este 41 Este 0 1009.8 -0.2 65
2020-03-27 17:00:00 11.7 23 Este 37 Nordeste 0 1009.7 -0.8 65
2020-03-27 16:00:00 11.8 27 Este 39 Este 0 1009.9 -0.9 62
2020-03-27 15:00:00 11.5 24 Este 32 Este 0 1010 -1.2 63
2020-03-27 14:00:00 12.2 20 Nordeste 33 Este 0 1010.5 -0.9 58
2020-03-27 13:00:00 12.1 15 Nordeste 26 Nordeste 0 1010.8 -0.4 53
2020-03-27 12:00:00 11.7 14 Nordeste 26 Nordeste 0 1011.2 0.1 51
2020-03-27 11:00:00 12 9 Nordeste 18 Este 0 1011.4 0.5 49
2020-03-27 10:00:00 11 5 Este 11 Sur 0 1011.2 0.7 55
2020-03-27 09:00:00 6.7 8 Sur 14 Sudoeste 0 1011.1 0.9 74
2020-03-27 08:00:00 4.3 11 Sudoeste 15 Sur 0 1010.9 0.8 84
2020-03-27 07:00:00 3.5 12 Sur 14 Sudoeste 0 1010.5 0.6 85
2020-03-27 06:00:00 3.6 11 Sudoeste 15 Sur 0 1010.2 0.1 86
2020-03-27 05:00:00 4.1 12 Sur 15 Sur 0 1010.1 -0.2 85
2020-03-27 04:00:00 4.5 10 Sudoeste 14 Sudoeste 0 1009.9 -0.5 82
2020-03-27 03:00:00 5.4 10 Sudoeste 13 Sudoeste 0 1010.1 -0.4 76
2020-03-27 02:00:00 6.6 8 Sudoeste 13 Sudoeste 0 1010.3 -0.4 66
2020-03-27 01:00:00 7.7 8 Sudoeste 11 Sudoeste 0 1010.4 -0.3 60
2020-03-27 00:00:00 9.2 2 Sudeste 15 Nordeste 0 1010.5 -0.3 58
2020-03-26 23:00:00 9.6 9 Nordeste 21 Norte 0 1010.7 0.5 53
2020-03-26 22:00:00 9.7 16 Nordeste 24 Norte 0 1010.7 0.7 53
2020-03-26 21:00:00 9.8 14 Nordeste 27 Norte 0 1010.8 1.3 54
2020-03-26 20:00:00 9.9 18 Norte 31 Norte 0 1010.2 0.9 55
2020-03-26 19:00:00 10.2 24 Norte 34 Norte 0 1010 0.9 58
2020-03-26 18:00:00 10.8 25 Norte 32 Norte 0 1009.5 0 58
2020-03-26 17:00:00 11 20 Norte 40 Noroeste 0 1009.3 -0.8 60
2020-03-26 16:00:00 11.6 23 Noroeste 37 Noroeste 0 1009.1 -1.6 61
2020-03-26 15:00:00 11.8 21 Noroeste 35 Noroeste 0 1009.5 -1.6 57
2020-03-26 14:00:00 12 18 Noroeste 31 Noroeste 0 1010.1 -1.1 56
2020-03-26 13:00:00 11.6 19 Noroeste 33 Noroeste 0 1010.7 -0.5 62
2020-03-26 12:00:00 12.9 20 Noroeste 36 Oeste 0 1011.1 0.1 57
2020-03-26 11:00:00 11.4 23 Oeste 35 Oeste 0 1011.2 0.4 57
2020-03-26 10:00:00 10.3 16 Oeste 28 Oeste 0 1011.2 0.8 63
2020-03-26 09:00:00 9.6 7 Oeste 21 Oeste 0 1011 0.5 70
2020-03-26 08:00:00 8.8 9 Oeste 21 Oeste 0 1010.8 0.1 73
2020-03-26 07:00:00 7.5 8 Oeste 18 Oeste 0 1010.4 -0.7 82
2020-03-26 06:00:00 6.1 4 Sudoeste 12 Sudoeste 0 1010.5 -1 88
2020-03-26 05:00:00 6.6 3 Oeste 13 Oeste 0 1010.7 -1.3 87
2020-03-26 04:00:00 7.7 9 Sudoeste 14 Sudoeste 0 1011.1 -1 83
2020-03-26 03:00:00 8 7 Sudoeste 11 Sur 0 1011.5 -0.9 84
2020-03-26 02:00:00 8.7 6 Sudoeste 10 Sudoeste 0 1012 -0.4 77
2020-03-26 01:00:00 8.9 5 Sur 10 Norte 0 1012.1 -0.6 74
2020-03-26 00:00:00 9.6 6 Norte 12 Nordeste 0 1012.4 0.3 67
2020-03-25 23:00:00 9.8 7 Norte 16 Norte 0 1012.4 0.9 67
2020-03-25 22:00:00 10.5 10 Norte 22 Norte 0 1012.7 1.1 66
2020-03-25 21:00:00 11.1 14 Norte 20 Nordeste 0 1012.1 0.8 64
2020-03-25 20:00:00 11.3 6 Norte 13 Nordeste 0 1011.5 0 68
2020-03-25 19:00:00 12 8 Norte 17 Norte 0 1011.6 0.2 68
2020-03-25 18:00:00 12.4 11 Norte 15 Norte 0 1011.3 -0.3 68
2020-03-25 17:00:00 12.8 8 Norte 14 Norte 0 1011.5 -0.3 71
2020-03-25 16:00:00 13.9 11 Norte 16 Noroeste 0 1011.4 -0.7 74
2020-03-25 15:00:00 14.3 10 Noroeste 17 Noroeste 0 1011.6 -0.5 76
2020-03-25 14:00:00 14 6 Noroeste 17 Noroeste 0 1011.8 -0.2 78
2020-03-25 13:00:00 13.3 5 Norte 19 Noroeste 0 1012.1 0.2 84
2020-03-25 12:00:00 13.6 11 Noroeste 19 Noroeste 0 1012.1 0.1 85
2020-03-25 11:00:00 13.3 10 Noroeste 18 Noroeste 0 1012 0.1 83
2020-03-25 10:00:00 12.4 10 Noroeste 15 Noroeste 0 1011.9 0.5 80
2020-03-25 09:00:00 9.9 5 Sudoeste 14 Sur 0 1012 0.9 87
2020-03-25 08:00:00 7.3 11 Sudoeste 14 Sur 0 1011.9 0.9 93
2020-03-25 07:00:00 6.8 10 Sur 14 Sudoeste 0 1011.4 0.4 93
2020-03-25 06:00:00 7.2 8 Sudoeste 15 Sudoeste 0 1011.1 -0.5 94
2020-03-25 05:00:00 7.1 9 Sudoeste 14 Sudoeste 0 1011 -0.8 94
2020-03-25 04:00:00 7.3 13 Sudoeste 15 Sudoeste 0 1011 -0.9 94
2020-03-25 03:00:00 7.6 11 Sudoeste 13 Sudoeste 0 1011.6 -0.5 94
2020-03-25 02:00:00 8.2 10 Sudoeste 15 Sudoeste 0 1011.8 -0.7 94
2020-03-25 01:00:00 8.7 11 Sudoeste 14 Sudoeste 0 1011.9 -0.5 94
2020-03-25 00:00:00 9.5 10 Sudoeste 14 Sudoeste 0 1012.1 0.2 93
2020-03-24 23:00:00 10.7 6 Sur 9 Sur 0 1012.5 0.7 92
2020-03-24 22:00:00 12.2 3 Este 23 Este 0 1012.4 0.9 92
2020-03-24 21:00:00 12.7 15 Este 25 Este 0 1011.9 0.3 93
2020-03-24 20:00:00 12.9 9 Este 24 Este 0 1011.8 0.3 91
2020-03-24 19:00:00 13.6 9 Este 28 Sudeste 0 1011.5 -0.1 86
2020-03-24 18:00:00 14.2 23 Este 34 Este 0 1011.6 -0.1 81
2020-03-24 17:00:00 14.1 25 Este 40 Este 0 1011.5 -0.8 82
2020-03-24 16:00:00 14.5 24 Este 39 Nordeste 0 1011.6 -1.3 81
2020-03-24 15:00:00 15 27 Este 39 Este 0 1011.7 -2.2 70
2020-03-24 14:00:00 15 19 Este 27 Nordeste 0 1012.3 -1.5 76
2020-03-24 13:00:00 15.5 4 Nordeste 15 Nordeste 0 1012.9 -1.1 76
2020-03-24 12:00:00 13.3 6 Nordeste 11 Nordeste 0 1013.9 -0.3 80
2020-03-24 11:00:00 13.1 5 Nordeste 11 Nordeste 0 1013.8 0 80
2020-03-24 10:00:00 13.7 0 Calma 10 Sudoeste 0 1014 0.6 79
2020-03-24 09:00:00 10 8 Sudoeste 13 Sur 0 1014.2 1 90
2020-03-24 08:00:00 7.6 11 Sur 14 Sudoeste 0 1013.8 0.8 94
2020-03-24 07:00:00 7.2 12 Sur 14 Sudoeste 0 1013.4 0.2 95
2020-03-24 06:00:00 7.8 9 Sudoeste 12 Sur 0 1013.2 -0.3 95
2020-03-24 05:00:00 8.2 8 Sudoeste 12 Sudoeste 0 1013 -0.5 95
2020-03-24 04:00:00 8.3 8 Sudoeste 11 Sudoeste 0 1013.2 -0.6 94
2020-03-24 03:00:00 8.7 9 Sudoeste 12 Sudoeste 0 1013.5 -0.6 94
2020-03-24 02:00:00 9.3 8 Sur 10 Sur 0 1013.5 -0.6 94
2020-03-24 01:00:00 9.9 7 Sur 9 Sur 0 1013.8 -0.5 93
2020-03-24 00:00:00 10.9 6 Sur 13 Este 0 1014.1 0 91
2020-03-23 23:00:00 11.8 5 Este 17 Este 0 1014.1 0.5 89
2020-03-23 22:00:00 12.7 8 Este 27 Este 0 1014.3 0.9 87
2020-03-23 21:00:00 12.7 18 Este 32 Este 0 1014.1 0.9 86
2020-03-23 20:00:00 12.6 22 Este 33 Este 0 1013.6 0.5 86
2020-03-23 19:00:00 12.7 16 Este 29 Este 0 1013.4 0.4 86
2020-03-23 18:00:00 12.8 18 Este 25 Este 0 1013.2 0.1 85
2020-03-23 17:00:00 12.8 17 Este 25 Nordeste 0 1013.1 -0.4 84
2020-03-23 16:00:00 12.7 18 Nordeste 32 Este 0 1013 -1 84
2020-03-23 15:00:00 13 18 Nordeste 30 Este 0 1013.1 -1.2 82
2020-03-23 14:00:00 13.2 19 Nordeste 30 Este 0 1013.5 -1.1 79
2020-03-23 13:00:00 13.8 18 Nordeste 28 Este 0 1014 -0.7 79
2020-03-23 12:00:00 13.8 13 Nordeste 20 Nordeste 0 1014.3 0.1 77
2020-03-23 11:00:00 13.8 7 Nordeste 12 Este 0 1014.6 0.9 78
2020-03-23 10:00:00 12.3 0 Calma 6 Sur 0 1014.7 1.5 87
2020-03-23 09:00:00 11.9 2 Sur 7 Sur 0 1014.2 1.4 89
2020-03-23 08:00:00 11.7 0 Calma -- -- 0 1013.7 1.3 89
2020-03-23 07:00:00 11.6 0 Calma 8 Sudeste 0 1013.2 1 88
2020-03-23 06:00:00 11.6 5 Sudeste 10 Este 0 1012.8 0.4 89
2020-03-23 05:00:00 11.9 4 Este 14 Nordeste 0 1012.4 -0.2 88
2020-03-23 04:00:00 11.9 8 Este 13 Nordeste 0 1012.2 -0.5 88
2020-03-23 03:00:00 12.1 8 Este 12 Este 0 1012.4 -0.3 88
2020-03-23 02:00:00 12.2 4 Nordeste 9 Este 0 1012.6 0.1 89
2020-03-23 01:00:00 12.3 5 Nordeste 9 Nordeste 0 1012.7 0.5 89
2020-03-23 00:00:00 12.2 4 Nordeste 9 Nordeste 0 1012.7 0.9 89
2020-03-22 23:00:00 12.3 6 Nordeste 12 Nordeste 0 1012.5 1.5 90
2020-03-22 22:00:00 12.5 8 Nordeste 14 Norte 0 1012.2 1.7 90
2020-03-22 21:00:00 12.7 9 Nordeste 14 Norte 0 1011.8 1.6 91
2020-03-22 20:00:00 12.8 9 Nordeste 15 Oeste 0 1011 1.3 91
2020-03-22 19:00:00 12.9 8 Oeste 11 Oeste 0 1010.5 0.9 89
2020-03-22 18:00:00 13.6 6 Oeste 16 Noroeste 0 1010.2 0.7 85
2020-03-22 17:00:00 14.2 9 Noroeste 19 Noroeste 0 1009.7 -0.1 81
2020-03-22 16:00:00 14.1 12 Noroeste 19 Noroeste 0 1009.6 -0.2 79
2020-03-22 15:00:00 14.2 14 Noroeste 18 Noroeste 0 1009.5 -0.5 78
2020-03-22 14:00:00 14.5 11 Noroeste 18 Noroeste 0 1009.8 0 79
2020-03-22 13:00:00 14.1 12 Noroeste 19 Noroeste 0 1009.8 0.3 77
2020-03-22 12:00:00 14.1 12 Noroeste 18 Noroeste 0 1010 0.9 77
2020-03-22 11:00:00 13.7 11 Noroeste 16 Noroeste 0 1009.8 1.1 75
2020-03-22 10:00:00 13.6 9 Noroeste 15 Noroeste 0 1009.5 1.3 76
2020-03-22 09:00:00 12.4 0 Calma 11 Oeste 0 1009.1 1.3 84
2020-03-22 08:00:00 11.7 4 Oeste 13 Noroeste 0 1008.7 1.2 86
2020-03-22 07:00:00 11.4 0 Calma 9 Oeste 0 1008.2 0.8 87
2020-03-22 06:00:00 11.3 0 Calma 8 Sur 0 1007.8 0.4 88
2020-03-22 05:00:00 11.2 2 Sur 8 Sur 0 1007.5 0 88
2020-03-22 04:00:00 11.3 0 Calma 10 Sudoeste 0 1007.4 -0.1 87
2020-03-22 03:00:00 11.3 2 Sudoeste 6 Sur 0 1007.4 0 87
2020-03-22 02:00:00 11.2 3 Sudoeste 10 Sudoeste 0 1007.5 0.3 87
2020-03-22 01:00:00 11.2 0 Calma 9 Sudoeste 0 1007.5 0.6 87
2020-03-22 00:00:00 11.3 2 Sudoeste 8 Sudoeste 0 1007.4 0.7 89
2020-03-21 23:00:00 11.4 0 Calma 8 Sudoeste 0 1007.2 1.1 90
2020-03-21 22:00:00 11.6 0 Calma 8 Oeste 0 1006.9 1.5 90
2020-03-21 21:00:00 11.4 3 Oeste 13 Oeste 0 1006.7 1.8 90
2020-03-21 20:00:00 11.1 6 Oeste 12 Oeste 0 1006.1 1.4 91
2020-03-21 19:00:00 11.4 7 Oeste 13 Oeste 0 1005.4 0.7 88
2020-03-21 18:00:00 11.9 10 Noroeste 21 Noroeste 0 1004.9 0 87
2020-03-21 17:00:00 13 13 Noroeste 21 Noroeste 0 1004.7 -0.4 83
2020-03-21 16:00:00 13.6 10 Noroeste 16 Noroeste 0 1004.7 -0.8 81
2020-03-21 15:00:00 13.5 8 Noroeste 14 Noroeste 0 1004.9 -0.9 82
2020-03-21 14:00:00 13.4 7 Noroeste 12 Noroeste 0 1005.1 -0.7 84
2020-03-21 13:00:00 12.4 5 Noroeste 12 Noroeste 0 1005.5 -0.3 92
2020-03-21 12:00:00 11.4 6 Noroeste 14 Norte 0 1005.8 0.1 94
2020-03-21 11:00:00 10.1 7 Noroeste 11 Noroeste 0 1005.8 -0.3 94
2020-03-21 10:00:00 10.1 0 Calma 5 Sudeste 0 1005.8 -0.3 94
2020-03-21 09:00:00 9.4 0 Calma 8 Sudoeste 0 1005.7 -0.5 94
2020-03-21 08:00:00 9.7 4 Sur 10 Sur 0 1006.1 -0.1 94
2020-03-21 07:00:00 9.3 4 Sur 10 Sur 0 1006.1 -0.3 94
2020-03-21 06:00:00 9.6 0 Calma 8 Sur 0 1006.2 -0.8 94
2020-03-21 05:00:00 9.8 0 Calma 5 Sur 0 1006.2 -0.9 94
2020-03-21 04:00:00 9.8 0 Calma 8 Oeste 0 1006.4 -1 94
2020-03-21 03:00:00 10.2 5 Oeste 10 Oeste 0 1007 -0.7 94
2020-03-21 02:00:00 10.1 0 Calma 10 Sudoeste 0 1007.1 -0.8 94
2020-03-21 01:00:00 10.7 0 Calma 6 Sudoeste 0 1007.4 -0.5 93
2020-03-21 00:00:00 11 0 Calma 4 Sur 0 1007.7 0 93
2020-03-20 23:00:00 11.1 3 Sur 8 Sur 0 1007.9 0 92
2020-03-20 22:00:00 11.5 0 Calma 6 Sur 0 1007.9 -0.3 91
2020-03-20 21:00:00 11.7 0 Calma 4 Sudoeste 0 1007.7 -0.6 90
2020-03-20 20:00:00 11.7 0 Calma 5 Noroeste 0 1007.9 -0.4 88
2020-03-20 19:00:00 12.2 0 Calma 6 Norte 0 1008.2 -0.2 87
2020-03-20 18:00:00 12.2 0 Calma 9 Norte 0 1008.3 -0.3 87
2020-03-20 17:00:00 12.2 4 Norte 10 Norte 0 1008.3 -0.9 87
2020-03-20 16:00:00 12.2 4 Norte 10 Norte 0 1008.4 -1 86
2020-03-20 15:00:00 12.8 5 Norte 12 Norte 0 1008.6 -1.2 84
2020-03-20 14:00:00 13 0 Calma -- -- 0 1009.2 -0.7 83
2020-03-20 13:00:00 12.6 0 Calma -- -- 0 1009.4 -0.4 85
2020-03-20 12:00:00 12.2 0 Calma -- -- 0 1009.8 0.2 85
2020-03-20 11:00:00 11.5 0 Calma -- -- 0 1009.9 0.5 90
2020-03-20 10:00:00 10.8 0 Calma -- -- 0 1009.8 0.6 93
2020-03-20 09:00:00 10.3 0 Calma -- -- 0 1009.6 0.1 94
2020-03-20 08:00:00 10 0 Calma -- -- 0 1009.4 -0.3 94
2020-03-20 07:00:00 10.1 0 Calma -- -- 0 1009.2 -0.5 94
2020-03-20 06:00:00 10.3 0 Calma -- -- 0 1009.5 -0.7 94
2020-03-20 05:00:00 10.3 0 Calma -- -- 0 1009.7 -0.7 94
2020-03-20 04:00:00 10.5 0 Calma -- -- 0.1 1009.7 -1.1 94
2020-03-20 03:00:00 10.7 0 Calma -- -- 0 1010.2 -0.8 94
2020-03-20 02:00:00 10.9 0 Calma -- -- 0.1 1010.4 -0.9 94
2020-03-20 01:00:00 10.9 0 Calma 5 Oeste 0 1010.8 -0.5 94
2020-03-20 00:00:00 11.1 0 Calma -- -- 0 1011 -0.5 94
2020-03-19 23:00:00 11.2 0 Calma 4 Noroeste 0 1011.3 -0.3 94
2020-03-19 22:00:00 11.2 0 Calma 6 Norte 0 1011.3 -0.4 94
2020-03-19 21:00:00 11.2 0 Calma 8 Noroeste 0.1 1011.5 -0.3 94
2020-03-19 20:00:00 11.3 3 Norte 6 Norte 0.1 1011.6 -0.3 94
2020-03-19 19:00:00 11.2 2 Norte 8 Norte 0 1011.7 -0.5 94
2020-03-19 18:00:00 11.4 3 Norte 8 Norte 0 1011.8 -0.9 93
2020-03-19 17:00:00 11.5 4 Norte 9 Norte 0 1011.9 -1.5 93
2020-03-19 16:00:00 11.7 4 Norte 11 Norte 0 1012.2 -2.1 93
2020-03-19 15:00:00 11.5 6 Norte 9 Norte 0 1012.7 -2 93
2020-03-19 14:00:00 11.6 0 Calma 9 Nordeste 0 1013.4 -1.9 94
2020-03-19 13:00:00 11.5 4 Norte 10 Norte 0 1014.3 -1.2 94
2020-03-19 12:00:00 11.5 0 Calma 7 Norte 0 1014.7 -0.7 95
2020-03-19 11:00:00 11.1 0 Calma -- -- 0 1015.3 -0.2 95
2020-03-19 10:00:00 10.9 0 Calma -- -- 0 1015.5 -0.3 95
2020-03-19 09:00:00 10.4 0 Calma 7 Sur 0 1015.4 -0.5 95
2020-03-19 08:00:00 10.2 4 Sur 9 Sur 0 1015.5 -0.5 95
2020-03-19 07:00:00 10.6 0 Calma -- -- 0 1015.8 -0.5 95
2020-03-19 06:00:00 10.6 0 Calma 5 Oeste 0 1015.9 -0.9 95
2020-03-19 05:00:00 10.6 0 Calma 10 Oeste 0.1 1016 -1.5 95
2020-03-19 04:00:00 10.9 0 Calma -- -- 0 1016.3 -1.5 95
2020-03-19 03:00:00 10.9 0 Calma 5 Norte 0.1 1016.8 -1.3 95
2020-03-19 02:00:00 10.7 0 Calma 6 Norte 0 1017.5 -0.9 95
2020-03-19 01:00:00 11 2 Norte 6 Norte 0 1017.8 -0.8 95
2020-03-19 00:00:00 11 0 Calma 8 Nordeste 0 1018.1 -0.8 95
2020-03-18 23:00:00 11.3 3 Nordeste 11 Este 0 1018.4 -0.6 95
2020-03-18 22:00:00 11.5 3 Este 8 Este 0 1018.6 -0.5 94
2020-03-18 21:00:00 11.5 0 Calma 6 Este 0 1018.9 -0.2 93
2020-03-18 20:00:00 11.5 0 Calma 10 Noroeste 0 1019 -0.2 92
2020-03-18 19:00:00 11.6 3 Noroeste 11 Norte 0 1019.1 -0.3 91
2020-03-18 18:00:00 12 5 Noroeste 10 Norte 0 1019.1 -0.8 90
2020-03-18 17:00:00 12 5 Norte 11 Norte 0 1019.2 -1 89
2020-03-18 16:00:00 12.3 3 Norte 11 Nordeste 0 1019.4 -1.6 87
2020-03-18 15:00:00 12.4 5 Norte 15 Nordeste 0 1019.9 -1.6 87
2020-03-18 14:00:00 12.6 4 Norte 12 Noroeste 0 1020.2 -1.9 85
2020-03-18 13:00:00 12.7 6 Noroeste 15 Norte 0 1021 -1.3 84
2020-03-18 12:00:00 12.6 6 Noroeste 13 Noroeste 0 1021.5 -0.7 87
2020-03-18 11:00:00 11.6 0 Calma 9 Sudoeste 0 1022.1 0.1 93
2020-03-18 10:00:00 9.8 2 Sudoeste 12 Sudoeste 0 1022.3 0.2 95
2020-03-18 09:00:00 8.2 8 Sudoeste 11 Sudoeste 0 1022.2 0.4 95
2020-03-18 08:00:00 8.3 5 Sudoeste 11 Sudoeste 0 1022 0.4 95
2020-03-18 07:00:00 7.6 8 Sudoeste 12 Sudoeste 0 1022.1 0 95
2020-03-18 06:00:00 7.7 6 Sudoeste 12 Sur 0 1021.8 -0.5 95
2020-03-18 05:00:00 7.7 8 Sudoeste 12 Sudoeste 0 1021.6 -1 95
2020-03-18 04:00:00 8.1 6 Sudoeste 12 Sur 0 1022.1 -0.9 95
2020-03-18 03:00:00 8.5 8 Sudoeste 11 Sudoeste 0 1022.3 -0.9 95
2020-03-18 02:00:00 8.8 6 Sudoeste 11 Sur 0 1022.6 -0.9 95
2020-03-18 01:00:00 9.7 5 Sudoeste 8 Sur 0 1023 -0.9 95
2020-03-18 00:00:00 10.4 0 Calma 6 Sur 0 1023.2 -0.8 94
2020-03-17 23:00:00 10.6 2 Sur 9 Oeste 0 1023.5 0 93
2020-03-17 22:00:00 11 0 Calma 5 Sur 0 1023.9 0.7 92
2020-03-17 21:00:00 11.6 4 Sur 22 Este 0 1024 0.6 91
2020-03-17 20:00:00 12.1 16 Este 29 Este 0 1023.5 0.3 90
2020-03-17 19:00:00 12.1 20 Este 33 Este 0 1023.2 -0.1 90
2020-03-17 18:00:00 12.2 22 Este 34 Este 0 1023.4 -0.3 89
2020-03-17 17:00:00 12.1 23 Este 34 Este 0 1023.2 -1.1 87
2020-03-17 16:00:00 12.4 22 Este 32 Este 0 1023.3 -1.7 87
2020-03-17 15:00:00 12.1 22 Este 31 Este 0 1023.7 -1.1 86
2020-03-17 14:00:00 12.4 21 Este 29 Este 0 1024.3 -0.6 83
2020-03-17 13:00:00 12.5 15 Este 20 Este 0 1025 0 80
2020-03-17 12:00:00 13.4 6 Nordeste 13 Nordeste 0 1024.8 -0.2 78
2020-03-17 11:00:00 11.3 7 Sur 13 Sur 0 1024.9 0.5 87
2020-03-17 10:00:00 9.9 2 Sur 5 Sur 0 1025 0.9 91
2020-03-17 09:00:00 9.6 0 Calma 9 Sudoeste 0 1025 1.6 89
2020-03-17 08:00:00 9.1 4 Sudoeste 12 Sudoeste 0 1024.4 1.3 89
2020-03-17 07:00:00 9 3 Sudoeste 12 Sudoeste 0 1024.1 1.1 89
2020-03-17 06:00:00 9 3 Sudoeste 13 Sudoeste 0.1 1023.4 0.1 88
2020-03-17 05:00:00 9.2 2 Sudoeste 11 Sur 0 1023.1 -0.1 87
2020-03-17 04:00:00 9 5 Sudoeste 13 Sudoeste 0 1023 -0.1 87
2020-03-17 03:00:00 9.7 2 Sudoeste 17 Noroeste 0 1023.3 0 84
2020-03-17 02:00:00 10.6 6 Norte 26 Norte 0 1023.2 0.2 79
2020-03-17 01:00:00 10.8 10 Norte 22 Norte 0 1023.1 0.7 78
2020-03-17 00:00:00 10.9 9 Norte 23 Norte 0 1023.3 1.6 69
2020-03-16 23:00:00 10.9 15 Norte 26 Norte 0 1023 2.2 74
2020-03-16 22:00:00 10.8 18 Norte 28 Norte 0 1022.4 2.4 76
2020-03-16 21:00:00 10.7 22 Norte 31 Norte 0.1 1021.7 2.6 76
2020-03-16 20:00:00 10.3 27 Norte 38 Norte 0.2 1020.8 1.6 76
2020-03-16 19:00:00 10.3 24 Norte 38 Norte 0 1020 1.5 78
2020-03-16 18:00:00 11 28 Norte 36 Norte 0 1019.1 0.8 72
2020-03-16 17:00:00 10.9 25 Norte 35 Norte 0 1019.2 1.5 70
2020-03-16 16:00:00 10.8 26 Norte 33 Norte 0.1 1018.5 0.7 73
2020-03-16 15:00:00 9.9 11 Norte 42 Norte 0.1 1018.3 0.9 78
2020-03-16 14:00:00 11.3 15 Norte 32 Norte 0 1017.7 1.2 67
2020-03-16 13:00:00 11.1 24 Norte 36 Norte 0.1 1017.8 1.7 67
2020-03-16 12:00:00 9.4 17 Norte 53 Norte 1.3 1017.4 2.2 72
2020-03-16 11:00:00 10.7 21 Norte 41 Norte 0 1016.5 1.8 69
2020-03-16 10:00:00 10.2 19 Norte 39 Norte 0.1 1016.1 2.2 68
2020-03-16 09:00:00 7 4 Sur 18 Sudeste 0.3 1015.2 2.2 92
2020-03-16 08:00:00 7.2 8 Oeste 25 Noroeste 2.9 1014.7 2.6 91
2020-03-16 07:00:00 6.7 4 Sudoeste 35 Oeste 0.6 1013.9 1.9 87
2020-03-16 06:00:00 7 10 Oeste 31 Oeste 0.8 1013 0.7 88
2020-03-16 05:00:00 5.4 4 Sudoeste 18 Sudoeste 0.3 1012.1 -0.3 90
2020-03-16 04:00:00 5.2 4 Sudoeste 22 Sur 0.1 1012 0 91
2020-03-16 03:00:00 5.5 2 Oeste 19 Oeste 1.6 1012.3 0.2 91
2020-03-16 02:00:00 5.9 2 Sudoeste 15 Sudoeste 0.5 1012.4 0.2 90
2020-03-16 01:00:00 6.1 5 Sudoeste 13 Sur 0.4 1012 0.2 90
2020-03-16 00:00:00 6.5 2 Sudoeste 27 Oeste 0.2 1012.1 0.8 88
2020-03-15 23:00:00 6.9 18 Oeste 32 Oeste 1.6 1012.2 1.2 89
2020-03-15 22:00:00 7 3 Sudoeste 30 Oeste 0.6 1011.8 1.5 88
2020-03-15 21:00:00 7.1 13 Oeste 48 Oeste 0.1 1011.3 2.3 91
2020-03-15 20:00:00 7.8 23 Noroeste 42 Oeste 2.2 1011 2.7 93
2020-03-15 19:00:00 8.4 25 Oeste 45 Oeste 2.8 1010.3 2.7 93
2020-03-15 18:00:00 8.9 31 Oeste 52 Noroeste 0.7 1009 1.6 93
2020-03-15 17:00:00 11.1 35 Noroeste 52 Noroeste 0 1008.3 0.2 84
2020-03-15 16:00:00 14.2 4 Nordeste 11 Nordeste 0 1007.6 -1.1 60
2020-03-15 15:00:00 15.1 3 Este 10 Sur 0 1007.4 -1.8 62
2020-03-15 14:00:00 13.6 0 Calma 15 Noroeste 0 1008.1 -1.2 73
2020-03-15 13:00:00 13.2 9 Noroeste 19 Noroeste 0 1008.7 -1 78
2020-03-15 12:00:00 12.6 14 Noroeste 22 Noroeste 0 1009.2 -0.1 79
2020-03-15 11:00:00 12.8 14 Noroeste 33 Oeste 0 1009.3 0.5 77
2020-03-15 10:00:00 11.8 20 Oeste 34 Oeste 0 1009.7 1.7 84
2020-03-15 09:00:00 9.2 3 Sudoeste 18 Oeste 0 1009.3 1.6 93
2020-03-15 08:00:00 7.2 6 Oeste 15 Oeste 0 1008.8 0.5 93
2020-03-15 07:00:00 5.6 8 Sudoeste 12 Sudoeste 0 1008 -1.1 93
2020-03-15 06:00:00 6 7 Sudoeste 14 Sudoeste 0 1007.7 -2.9 93
2020-03-15 05:00:00 6.4 9 Sudoeste 13 Sur 0 1008.3 -3.2 93
2020-03-15 04:00:00 6.4 11 Sudoeste 13 Sudoeste 0 1009.1 -3.4 94
2020-03-15 03:00:00 6.7 6 Sudoeste 13 Sudoeste 0 1010.6 -2.7 94
2020-03-15 02:00:00 7.1 8 Sur 12 Sudoeste 0 1011.5 -2.7 93
2020-03-15 01:00:00 7.9 9 Sudoeste 12 Sudoeste 0 1012.5 -2.4 93
2020-03-15 00:00:00 8.5 0 Calma -- -- 0 1013.3 -2.2 90
2020-03-14 23:00:00 9.5 0 Calma 8 Sudeste 0 1014.2 -2 89
2020-03-14 22:00:00 9.9 5 Sudeste 12 Este 0 1014.9 -1.4 88
2020-03-14 21:00:00 11 6 Este 15 Este 0 1015.5 -1.2 81
2020-03-14 20:00:00 11.8 7 Este 22 Este 0 1016.2 -0.6 81
2020-03-14 19:00:00 11.8 9 Este 18 Este 0 1016.3 -0.9 78
2020-03-14 18:00:00 12.2 12 Este 21 Este 0 1016.7 -1.1 75
2020-03-14 17:00:00 12.8 10 Nordeste 19 Nordeste 0 1016.8 -1.8 71
2020-03-14 16:00:00 13.4 6 Nordeste 13 Norte 0 1017.2 -2.1 68
2020-03-14 15:00:00 13.5 9 Nordeste 16 Norte 0 1017.8 -1.9 65
2020-03-14 14:00:00 13 11 Norte 14 Norte 0 1018.6 -1.4 65
2020-03-14 13:00:00 12.9 8 Norte 13 Norte 0 1019.3 -0.7 65
2020-03-14 12:00:00 12.2 5 Norte 15 Oeste 0 1019.7 0.1 64
2020-03-14 11:00:00 12.3 9 Noroeste 14 Noroeste 0 1020 0.8 65
2020-03-14 10:00:00 11.7 0 Calma 11 Sur 0 1020 1.1 73
2020-03-14 09:00:00 9.9 3 Sudoeste 9 Sur 0 1019.6 1 79
2020-03-14 08:00:00 8.6 5 Sur 10 Sur 0 1019.2 0.8 89
2020-03-14 07:00:00 8.4 4 Sudoeste 11 Sur 0 1018.9 0.5 90
2020-03-14 06:00:00 8.2 6 Sudoeste 10 Sur 0 1018.6 -0.6 91
2020-03-14 05:00:00 7.9 7 Sur 11 Sudoeste 0 1018.4 -0.9 92
2020-03-14 04:00:00 7.6 8 Sur 12 Sur 0 1018.4 -1 92
2020-03-14 03:00:00 7.2 9 Sudoeste 12 Sudoeste 0 1019.2 -0.3 93
2020-03-14 02:00:00 6.6 10 Sudoeste 13 Sudoeste 0 1019.3 -0.3 93
2020-03-14 01:00:00 6.3 10 Sudoeste 12 Sudoeste 0 1019.4 -0.1 93
2020-03-14 00:00:00 6.7 9 Sudoeste 13 Sudoeste 0 1019.5 0.5 92
2020-03-13 23:00:00 7.2 10 Sur 12 Sur 0 1019.6 1.1 90
2020-03-13 22:00:00 8.4 8 Sudoeste 12 Sudoeste 0 1019.5 1.6 85
2020-03-13 21:00:00 9.1 8 Sudoeste 13 Este 0 1019 0.4 83
2020-03-13 20:00:00 11.1 11 Nordeste 17 Nordeste 0 1018.5 -0.4 77
2020-03-13 19:00:00 11.2 9 Este 19 Este 0 1017.9 -1.3 74
2020-03-13 18:00:00 11.6 14 Este 26 Este 0 1018.6 -1 71
2020-03-13 17:00:00 12 15 Nordeste 24 Este 0 1018.9 -1.2 68
2020-03-13 16:00:00 12.4 17 Nordeste 25 Nordeste 0 1019.2 -1 66
2020-03-13 15:00:00 12 19 Este 31 Este 0 1019.6 -1 65
2020-03-13 14:00:00 12 18 Nordeste 28 Nordeste 0 1020.1 -0.7 65
2020-03-13 13:00:00 12.1 19 Este 28 Este 0 1020.2 -0.5 65
2020-03-13 12:00:00 11.7 15 Este 23 Nordeste 0 1020.6 0.1 69
2020-03-13 11:00:00 11.7 8 Este 21 Nordeste 0 1020.8 0.3 78
2020-03-13 10:00:00 10.9 4 Este 10 Este 0 1020.7 0.1 88
2020-03-13 09:00:00 10.1 5 Sudeste 14 Sudeste 0 1020.5 -0.3 91
2020-03-13 08:00:00 9.3 9 Sudeste 13 Sur 0 1020.5 -0.3 94
2020-03-13 07:00:00 9.2 6 Sudeste 19 Este 0.1 1020.6 -0.3 95
2020-03-13 06:00:00 9.5 3 Sudeste 17 Este 0.9 1020.8 -0.4 95
2020-03-13 05:00:00 9.7 0 Calma 14 Nordeste 1.4 1020.8 -0.6 94
2020-03-13 04:00:00 9.7 7 Nordeste 19 Nordeste 0.2 1020.9 -0.6 94
2020-03-13 03:00:00 10 12 Nordeste 26 Nordeste 0.1 1021.2 -0.5 94
2020-03-13 02:00:00 9.7 10 Nordeste 22 Norte 1.2 1021.4 0 95
2020-03-13 01:00:00 10 5 Nordeste 16 Este 0.5 1021.5 0.3 95
2020-03-13 00:00:00 10.1 10 Nordeste 18 Este 0.9 1021.7 0.7 95
2020-03-12 23:00:00 10.4 7 Nordeste 19 Este 0.3 1021.4 0.9 95
2020-03-12 22:00:00 10.3 17 Nordeste 26 Nordeste 1.5 1021.2 1.2 96
2020-03-12 21:00:00 10.8 0 Calma 9 Norte 0.9 1021 1.3 96
2020-03-12 20:00:00 10.6 0 Calma 11 Oeste 0.2 1020.5 1.1 96
2020-03-12 19:00:00 10.9 0 Calma 11 Oeste 0.6 1020 0.8 96
2020-03-12 18:00:00 10.9 0 Calma 10 Sur 0.9 1019.7 0.8 96
2020-03-12 17:00:00 11.3 2 Sudoeste 14 Noroeste 0.1 1019.4 0.2 96
2020-03-12 16:00:00 10.9 15 Noroeste 39 Oeste 0.9 1019.2 -0.3 96
2020-03-12 15:00:00 12.4 9 Noroeste 14 Noroeste 0 1018.9 -0.7 94
2020-03-12 14:00:00 12.7 9 Noroeste 12 Noroeste 0 1019.2 -0.4 92
2020-03-12 13:00:00 13.3 0 Calma 6 Oeste 0 1019.5 0.3 90
2020-03-12 12:00:00 13.1 0 Calma 8 Oeste 0 1019.6 0.8 90
2020-03-12 11:00:00 13 0 Calma 9 Sudoeste 0 1019.6 1.2 92
2020-03-12 10:00:00 12.5 5 Sudoeste 10 Sur 0 1019.2 1.1 92
2020-03-12 09:00:00 12.1 6 Sur 8 Sur 0 1018.8 0.8 92
2020-03-12 08:00:00 12.2 0 Calma 5 Sur 0 1018.4 0.7 90
2020-03-12 07:00:00 12.3 3 Sudoeste 5 Sudoeste 0 1018.1 0.1 90
2020-03-12 06:00:00 12.6 4 Oeste 11 Sur 0 1018 -0.4 89
2020-03-12 05:00:00 11.6 8 Sur 14 Sur 0 1017.7 -0.8 93
2020-03-12 04:00:00 11.3 6 Sudoeste 11 Sudoeste 0 1018 -0.7 93
2020-03-12 03:00:00 11.7 6 Sudoeste 12 Sur 0 1018.4 -0.6 93
2020-03-12 02:00:00 11 7 Sur 9 Sur 0 1018.5 -0.3 93
2020-03-12 01:00:00 10.8 6 Sudoeste 9 Sur 0 1018.7 0.3 93
2020-03-12 00:00:00 10.4 8 Sur 9 Sur 0 1019 0.5 93
2020-03-11 23:00:00 10.6 5 Sudoeste 8 Sudoeste 0 1018.8 0.6 93
2020-03-11 22:00:00 11.3 4 Sudoeste 9 Oeste 0 1018.4 0.8 93
2020-03-11 21:00:00 11.9 6 Oeste 9 Noroeste 0 1018.5 1.1 93
2020-03-11 20:00:00 12.2 4 Noroeste 7 Nordeste 0 1018.2 1 91
2020-03-11 19:00:00 12.9 4 Norte 8 Este 0 1017.6 0.3 90
2020-03-11 18:00:00 14.3 6 Este 12 Este 0 1017.4 -0.2 82
2020-03-11 17:00:00 14.9 7 Nordeste 14 Este 0 1017.2 -1.1 81
2020-03-11 16:00:00 15.3 6 Nordeste 19 Este 0 1017.3 -1.5 78
2020-03-11 15:00:00 14.9 12 Este 19 Este 0 1017.6 -1.8 77
2020-03-11 14:00:00 14.8 11 Este 21 Este 0 1018.3 -1.2 79
2020-03-11 13:00:00 14.6 8 Nordeste 14 Nordeste 0 1018.8 -1 78
2020-03-11 12:00:00 13.2 8 Nordeste 11 Nordeste 0 1019.4 -0.6 77
2020-03-11 11:00:00 13.6 2 Norte 5 Norte 0 1019.5 -0.4 71
2020-03-11 10:00:00 12.7 4 Sudoeste 12 Sur 0 1019.8 -0.2 79
2020-03-11 09:00:00 9.3 9 Sudoeste 14 Sudoeste 0 1020 0.1 87
2020-03-11 08:00:00 7.6 12 Sudoeste 14 Sudoeste 0 1019.9 -0.1 92
2020-03-11 07:00:00 7.4 12 Sudoeste 15 Sudoeste 0 1020 -0.1 91
2020-03-11 06:00:00 7.7 12 Sudoeste 15 Sudoeste 0 1019.9 -0.6 92
2020-03-11 05:00:00 7.5 12 Sudoeste 14 Sudoeste 0 1020 -0.8 92
2020-03-11 04:00:00 7.7 12 Sudoeste 14 Sudoeste 0 1020.1 -1 92
2020-03-11 03:00:00 7.8 12 Sudoeste 14 Sudoeste 0 1020.5 -1.2 92
2020-03-11 02:00:00 8 10 Sudoeste 14 Sudoeste 0 1020.8 -1.6 93
2020-03-11 01:00:00 8.9 12 Sur 17 Sur 0 1021.1 -1 93
2020-03-11 00:00:00 8.6 13 Sur 17 Sur 0 1021.7 0 93
2020-03-10 23:00:00 9.3 10 Sur 13 Sur 0 1022.4 1 92
2020-03-10 22:00:00 10.2 10 Sudoeste 13 Sur 0 1022.1 0.9 90
2020-03-10 21:00:00 11.1 5 Sudeste 8 Sudeste 0 1021.7 0.3 90
2020-03-10 20:00:00 11.8 0 Calma 4 Este 0 1021.4 0.1 87
2020-03-10 19:00:00 12.7 0 Calma 12 Este 0 1021.2 -0.2 80
2020-03-10 18:00:00 13.7 4 Este 11 Este 0 1021.4 0 78
2020-03-10 17:00:00 14 3 Nordeste 10 Norte 0 1021.3 -0.3 74
2020-03-10 16:00:00 13.8 7 Norte 11 Norte 0 1021.4 -1 74
2020-03-10 15:00:00 13.6 6 Norte 9 Norte 0 1021.4 -1.1 73
2020-03-10 14:00:00 13.4 3 Norte 6 Nordeste 0 1021.6 -0.5 74
2020-03-10 13:00:00 12.9 3 Norte 12 Norte 0 1022.4 0.2 74
2020-03-10 12:00:00 12.2 9 Norte 15 Norte 0 1022.5 1.4 79
2020-03-10 11:00:00 12.3 4 Sur 11 Sudoeste 0 1022.1 1.4 80
2020-03-10 10:00:00 9.8 8 Sudoeste 13 Sur 0 1022.2 1.7 86
2020-03-10 09:00:00 8.2 5 Sudoeste 14 Sudoeste 0 1021.1 0.3 90
2020-03-10 08:00:00 6.7 11 Sudoeste 15 Sudoeste 0 1020.7 -0.4 92
2020-03-10 07:00:00 6.8 10 Sudoeste 14 Sudoeste 0 1020.5 -1 93
2020-03-10 06:00:00 6.9 11 Sur 14 Sudoeste 0 1020.8 -1.1 93
2020-03-10 05:00:00 7.2 12 Sur 15 Sudoeste 0 1021.1 -1.4 93
2020-03-10 04:00:00 7.4 11 Sudoeste 14 Sudoeste 0 1021.5 -1 93
2020-03-10 03:00:00 7.6 9 Sudoeste 14 Sudoeste 0 1021.9 -0.6 93
2020-03-10 02:00:00 7.9 10 Sur 14 Sudoeste 0 1022.5 -0.8 93
2020-03-10 01:00:00 8.7 8 Sudoeste 13 Sudoeste 0 1022.5 -1.3 92
2020-03-10 00:00:00 9.2 9 Sudoeste 10 Sur 0 1022.5 -1.4 90